sensor_id;sensor_type;location;lat;lon;timestamp;P1;P2;P0
54021;PMS7003;39936;51.058;17.220;2022-07-06T00:00:47;23;21;15
54021;PMS7003;39936;51.058;17.220;2022-07-06T00:03:56;23;22;15
54021;PMS7003;39936;51.058;17.220;2022-07-06T00:07:53;27;20;15
54021;PMS7003;39936;51.058;17.220;2022-07-06T00:11:40;24;23;17
54021;PMS7003;39936;51.058;17.220;2022-07-06T00:15:10;27;24;16
54021;PMS7003;39936;51.058;17.220;2022-07-06T00:18:45;23;20;15
54021;PMS7003;39936;51.058;17.220;2022-07-06T00:22:01;29;24;16
54021;PMS7003;39936;51.058;17.220;2022-07-06T00:29:18;21;19;14
54021;PMS7003;39936;51.058;17.220;2022-07-06T00:32:55;26;22;16
54021;PMS7003;39936;51.058;17.220;2022-07-06T00:37:02;24;21;15
54021;PMS7003;39936;51.058;17.220;2022-07-06T00:40:44;25;22;15
54021;PMS7003;39936;51.058;17.220;2022-07-06T00:43:56;18;17;13
54021;PMS7003;39936;51.058;17.220;2022-07-06T00:47:19;27;22;16
54021;PMS7003;39936;51.058;17.220;2022-07-06T00:50:32;23;20;14
54021;PMS7003;39936;51.058;17.220;2022-07-06T00:53:45;22;21;16
54021;PMS7003;39936;51.058;17.220;2022-07-06T00:57:46;28;26;19
54021;PMS7003;39936;51.058;17.220;2022-07-06T01:00:54;24;23;17
54021;PMS7003;39936;51.058;17.220;2022-07-06T01:04:08;24;24;17
54021;PMS7003;39936;51.058;17.220;2022-07-06T01:07:21;24;22;17
54021;PMS7003;39936;51.058;17.220;2022-07-06T01:10:35;22;22;15
54021;PMS7003;39936;51.058;17.220;2022-07-06T01:17:43;23;23;17
54021;PMS7003;39936;51.058;17.220;2022-07-06T01:21:16;26;25;17
54021;PMS7003;39936;51.058;17.220;2022-07-06T01:24:45;23;22;17
54021;PMS7003;39936;51.058;17.220;2022-07-06T01:28:16;28;27;19
54021;PMS7003;39936;51.058;17.220;2022-07-06T01:32:00;28;25;18
54021;PMS7003;39936;51.058;17.220;2022-07-06T01:35:35;32;28;19
54021;PMS7003;39936;51.058;17.220;2022-07-06T01:38:57;31;26;18
54021;PMS7003;39936;51.058;17.220;2022-07-06T01:42:36;33;28;18
54021;PMS7003;39936;51.058;17.220;2022-07-06T01:46:43;31;27;20
54021;PMS7003;39936;51.058;17.220;2022-07-06T01:50:14;33;31;21
54021;PMS7003;39936;51.058;17.220;2022-07-06T01:53:48;36;29;19
54021;PMS7003;39936;51.058;17.220;2022-07-06T01:58:03;25;24;18
54021;PMS7003;39936;51.058;17.220;2022-07-06T02:01:16;29;25;18
54021;PMS7003;39936;51.058;17.220;2022-07-06T02:04:43;34;30;20
54021;PMS7003;39936;51.058;17.220;2022-07-06T02:08:50;30;27;19
54021;PMS7003;39936;51.058;17.220;2022-07-06T02:12:02;30;25;17
54021;PMS7003;39936;51.058;17.220;2022-07-06T02:15:17;29;26;18
54021;PMS7003;39936;51.058;17.220;2022-07-06T02:18:49;21;20;14
54021;PMS7003;39936;51.058;17.220;2022-07-06T02:22:27;27;25;17
54021;PMS7003;39936;51.058;17.220;2022-07-06T02:25:41;27;24;16
54021;PMS7003;39936;51.058;17.220;2022-07-06T02:29:03;31;26;17
54021;PMS7003;39936;51.058;17.220;2022-07-06T02:32:13;29;27;19
54021;PMS7003;39936;51.058;17.220;2022-07-06T02:36:13;28;27;19
54021;PMS7003;39936;51.058;17.220;2022-07-06T02:40:09;30;26;19
54021;PMS7003;39936;51.058;17.220;2022-07-06T02:43:18;31;27;19
54021;PMS7003;39936;51.058;17.220;2022-07-06T02:46:46;27;25;18
54021;PMS7003;39936;51.058;17.220;2022-07-06T02:50:05;27;26;19
54021;PMS7003;39936;51.058;17.220;2022-07-06T02:53:43;31;26;18
54021;PMS7003;39936;51.058;17.220;2022-07-06T02:56:54;29;26;18
54021;PMS7003;39936;51.058;17.220;2022-07-06T03:00:59;34;29;21
54021;PMS7003;39936;51.058;17.220;2022-07-06T03:04:12;31;29;20
54021;PMS7003;39936;51.058;17.220;2022-07-06T03:07:29;29;26;17
54021;PMS7003;39936;51.058;17.220;2022-07-06T03:10:42;26;25;18
54021;PMS7003;39936;51.058;17.220;2022-07-06T03:13:54;28;25;18
54021;PMS7003;39936;51.058;17.220;2022-07-06T03:17:03;25;24;17
54021;PMS7003;39936;51.058;17.220;2022-07-06T03:20:32;27;25;18
54021;PMS7003;39936;51.058;17.220;2022-07-06T03:23:59;33;29;19
54021;PMS7003;39936;51.058;17.220;2022-07-06T03:28:03;26;24;17
54021;PMS7003;39936;51.058;17.220;2022-07-06T03:31:21;31;24;18
54021;PMS7003;39936;51.058;17.220;2022-07-06T03:34:36;28;25;18
54021;PMS7003;39936;51.058;17.220;2022-07-06T03:37:51;29;26;20
54021;PMS7003;39936;51.058;17.220;2022-07-06T03:41:01;33;30;19
54021;PMS7003;39936;51.058;17.220;2022-07-06T03:44:36;40;31;23
54021;PMS7003;39936;51.058;17.220;2022-07-06T03:47:54;40;35;21
54021;PMS7003;39936;51.058;17.220;2022-07-06T03:51:44;41;36;23
54021;PMS7003;39936;51.058;17.220;2022-07-06T03:54:56;40;33;22
54021;PMS7003;39936;51.058;17.220;2022-07-06T03:58:09;49;41;24
54021;PMS7003;39936;51.058;17.220;2022-07-06T04:01:40;36;30;21
54021;PMS7003;39936;51.058;17.220;2022-07-06T04:05:09;29;27;18
54021;PMS7003;39936;51.058;17.220;2022-07-06T04:08:21;21;16;11
54021;PMS7003;39936;51.058;17.220;2022-07-06T04:12:00;31;28;17
54021;PMS7003;39936;51.058;17.220;2022-07-06T04:15:36;40;32;22
54021;PMS7003;39936;51.058;17.220;2022-07-06T04:19:11;23;20;15
54021;PMS7003;39936;51.058;17.220;2022-07-06T04:23:13;27;21;14
54021;PMS7003;39936;51.058;17.220;2022-07-06T04:26:42;22;20;12
54021;PMS7003;39936;51.058;17.220;2022-07-06T04:30:18;31;25;16
54021;PMS7003;39936;51.058;17.220;2022-07-06T04:33:54;22;19;12
54021;PMS7003;39936;51.058;17.220;2022-07-06T04:37:27;24;22;15
54021;PMS7003;39936;51.058;17.220;2022-07-06T04:40:45;22;19;14
54021;PMS7003;39936;51.058;17.220;2022-07-06T04:43:58;18;18;11
54021;PMS7003;39936;51.058;17.220;2022-07-06T04:47:13;13;12;7
54021;PMS7003;39936;51.058;17.220;2022-07-06T04:50:42;17;14;11
54021;PMS7003;39936;51.058;17.220;2022-07-06T04:53:51;11;10;7
54021;PMS7003;39936;51.058;17.220;2022-07-06T04:57:21;10;8;6
54021;PMS7003;39936;51.058;17.220;2022-07-06T05:01:01;14;11;8
54021;PMS7003;39936;51.058;17.220;2022-07-06T05:05:06;21;19;12
54021;PMS7003;39936;51.058;17.220;2022-07-06T05:08:17;13;12;9
54021;PMS7003;39936;51.058;17.220;2022-07-06T05:11:28;20;17;11
54021;PMS7003;39936;51.058;17.220;2022-07-06T05:15:03;21;20;12
54021;PMS7003;39936;51.058;17.220;2022-07-06T05:18:21;19;18;11
54021;PMS7003;39936;51.058;17.220;2022-07-06T05:21:55;21;17;13
54021;PMS7003;39936;51.058;17.220;2022-07-06T05:25:04;19;14;11
54021;PMS7003;39936;51.058;17.220;2022-07-06T05:28:34;18;18;12
54021;PMS7003;39936;51.058;17.220;2022-07-06T05:31:47;19;18;13
54021;PMS7003;39936;51.058;17.220;2022-07-06T05:34:58;21;17;12
54021;PMS7003;39936;51.058;17.220;2022-07-06T05:38:41;17;17;11
54021;PMS7003;39936;51.058;17.220;2022-07-06T05:41:48;17;15;13
54021;PMS7003;39936;51.058;17.220;2022-07-06T05:45:19;16;15;11
54021;PMS7003;39936;51.058;17.220;2022-07-06T05:48:50;17;16;11
54021;PMS7003;39936;51.058;17.220;2022-07-06T05:52:13;16;14;10
54021;PMS7003;39936;51.058;17.220;2022-07-06T05:55:44;17;17;11
54021;PMS7003;39936;51.058;17.220;2022-07-06T05:59:28;15;15;11
54021;PMS7003;39936;51.058;17.220;2022-07-06T06:03:01;14;12;9
54021;PMS7003;39936;51.058;17.220;2022-07-06T06:06:35;15;12;10
54021;PMS7003;39936;51.058;17.220;2022-07-06T06:10:11;14;13;9
54021;PMS7003;39936;51.058;17.220;2022-07-06T06:14:13;13;13;10
54021;PMS7003;39936;51.058;17.220;2022-07-06T06:17:34;14;12;9
54021;PMS7003;39936;51.058;17.220;2022-07-06T06:21:15;13;13;10
54021;PMS7003;39936;51.058;17.220;2022-07-06T06:24:43;17;15;10
54021;PMS7003;39936;51.058;17.220;2022-07-06T06:27:56;16;15;11
54021;PMS7003;39936;51.058;17.220;2022-07-06T06:31:17;14;12;9
54021;PMS7003;39936;51.058;17.220;2022-07-06T06:34:53;16;15;11
54021;PMS7003;39936;51.058;17.220;2022-07-06T06:38:19;16;14;11
54021;PMS7003;39936;51.058;17.220;2022-07-06T06:41:39;16;14;10
54021;PMS7003;39936;51.058;17.220;2022-07-06T06:45:16;17;16;10
54021;PMS7003;39936;51.058;17.220;2022-07-06T06:48:49;12;12;9
54021;PMS7003;39936;51.058;17.220;2022-07-06T06:52:00;19;14;9
54021;PMS7003;39936;51.058;17.220;2022-07-06T06:55:13;19;15;12
54021;PMS7003;39936;51.058;17.220;2022-07-06T06:58:55;21;18;15
54021;PMS7003;39936;51.058;17.220;2022-07-06T07:02:14;20;16;10
54021;PMS7003;39936;51.058;17.220;2022-07-06T07:05:28;22;18;13
54021;PMS7003;39936;51.058;17.220;2022-07-06T07:08:43;21;19;13
54021;PMS7003;39936;51.058;17.220;2022-07-06T07:12:04;21;18;14
54021;PMS7003;39936;51.058;17.220;2022-07-06T07:15:57;21;21;14
54021;PMS7003;39936;51.058;17.220;2022-07-06T07:19:19;25;22;15
54021;PMS7003;39936;51.058;17.220;2022-07-06T07:22:32;26;24;16
54021;PMS7003;39936;51.058;17.220;2022-07-06T07:33:35;19;19;13
54021;PMS7003;39936;51.058;17.220;2022-07-06T07:36:46;23;18;14
54021;PMS7003;39936;51.058;17.220;2022-07-06T07:40:05;18;13;9
54021;PMS7003;39936;51.058;17.220;2022-07-06T07:43:16;18;16;11
54021;PMS7003;39936;51.058;17.220;2022-07-06T07:51:05;15;13;8
54021;PMS7003;39936;51.058;17.220;2022-07-06T07:59:32;15;13;9
54021;PMS7003;39936;51.058;17.220;2022-07-06T08:03:13;19;18;13
54021;PMS7003;39936;51.058;17.220;2022-07-06T08:06:23;18;16;12
54021;PMS7003;39936;51.058;17.220;2022-07-06T08:10:04;21;20;13
54021;PMS7003;39936;51.058;17.220;2022-07-06T08:13:28;11;10;8
54021;PMS7003;39936;51.058;17.220;2022-07-06T08:29:09;13;12;9
54021;PMS7003;39936;51.058;17.220;2022-07-06T08:32:22;11;11;9
54021;PMS7003;39936;51.058;17.220;2022-07-06T08:36:06;12;10;7
54021;PMS7003;39936;51.058;17.220;2022-07-06T08:48:30;12;11;8
54021;PMS7003;39936;51.058;17.220;2022-07-06T08:51:49;14;13;10
54021;PMS7003;39936;51.058;17.220;2022-07-06T08:55:05;9;6;4
54021;PMS7003;39936;51.058;17.220;2022-07-06T08:58:30;12;11;8
54021;PMS7003;39936;51.058;17.220;2022-07-06T09:01:46;10;8;6
54021;PMS7003;39936;51.058;17.220;2022-07-06T09:05:45;10;10;7
54021;PMS7003;39936;51.058;17.220;2022-07-06T09:09:00;12;12;8
54021;PMS7003;39936;51.058;17.220;2022-07-06T09:16:12;10;9;6
54021;PMS7003;39936;51.058;17.220;2022-07-06T09:19:26;10;10;8
54021;PMS7003;39936;51.058;17.220;2022-07-06T09:22:40;11;10;7
54021;PMS7003;39936;51.058;17.220;2022-07-06T09:26:05;12;10;8
54021;PMS7003;39936;51.058;17.220;2022-07-06T09:29:46;9;8;6
54021;PMS7003;39936;51.058;17.220;2022-07-06T09:32:56;7;7;5
54021;PMS7003;39936;51.058;17.220;2022-07-06T09:40:48;4;4;3
54021;PMS7003;39936;51.058;17.220;2022-07-06T09:43:59;8;7;5
54021;PMS7003;39936;51.058;17.220;2022-07-06T09:47:19;12;9;7
54021;PMS7003;39936;51.058;17.220;2022-07-06T09:50:39;11;10;7
54021;PMS7003;39936;51.058;17.220;2022-07-06T09:53:55;8;8;6
54021;PMS7003;39936;51.058;17.220;2022-07-06T09:57:08;8;6;5
54021;PMS7003;39936;51.058;17.220;2022-07-06T10:00:21;6;6;5
54021;PMS7003;39936;51.058;17.220;2022-07-06T10:03:38;12;11;8
54021;PMS7003;39936;51.058;17.220;2022-07-06T10:06:52;10;9;7
54021;PMS7003;39936;51.058;17.220;2022-07-06T10:10:22;14;13;9
54021;PMS7003;39936;51.058;17.220;2022-07-06T10:13:46;11;11;9
54021;PMS7003;39936;51.058;17.220;2022-07-06T10:17:20;11;11;8
54021;PMS7003;39936;51.058;17.220;2022-07-06T10:20:31;6;5;4
54021;PMS7003;39936;51.058;17.220;2022-07-06T10:27:05;12;12;10
54021;PMS7003;39936;51.058;17.220;2022-07-06T10:30:17;9;9;7
54021;PMS7003;39936;51.058;17.220;2022-07-06T10:34:00;6;6;4
54021;PMS7003;39936;51.058;17.220;2022-07-06T10:37:09;7;6;4
54021;PMS7003;39936;51.058;17.220;2022-07-06T10:43:56;6;6;5
54021;PMS7003;39936;51.058;17.220;2022-07-06T10:47:07;5;5;4
54021;PMS7003;39936;51.058;17.220;2022-07-06T10:50:16;9;8;5
54021;PMS7003;39936;51.058;17.220;2022-07-06T10:53:30;7;6;3
54021;PMS7003;39936;51.058;17.220;2022-07-06T10:56:45;9;8;5
54021;PMS7003;39936;51.058;17.220;2022-07-06T11:00:02;7;6;5
54021;PMS7003;39936;51.058;17.220;2022-07-06T11:06:41;5;5;4
54021;PMS7003;39936;51.058;17.220;2022-07-06T11:09:57;6;6;5
54021;PMS7003;39936;51.058;17.220;2022-07-06T11:14:01;8;7;6
54021;PMS7003;39936;51.058;17.220;2022-07-06T11:24:35;5;5;3
54021;PMS7003;39936;51.058;17.220;2022-07-06T11:27:46;6;6;5
54021;PMS7003;39936;51.058;17.220;2022-07-06T11:31:34;5;5;4
54021;PMS7003;39936;51.058;17.220;2022-07-06T11:34:44;8;7;5
54021;PMS7003;39936;51.058;17.220;2022-07-06T11:37:52;3;3;2
54021;PMS7003;39936;51.058;17.220;2022-07-06T11:41:02;6;6;4
54021;PMS7003;39936;51.058;17.220;2022-07-06T11:44:21;7;7;5
54021;PMS7003;39936;51.058;17.220;2022-07-06T11:47:32;9;8;6
54021;PMS7003;39936;51.058;17.220;2022-07-06T11:54:11;3;3;2
54021;PMS7003;39936;51.058;17.220;2022-07-06T11:57:27;3;3;2
54021;PMS7003;39936;51.058;17.220;2022-07-06T12:00:44;12;7;6
54021;PMS7003;39936;51.058;17.220;2022-07-06T12:03:59;2;2;2
54021;PMS7003;39936;51.058;17.220;2022-07-06T12:07:16;7;7;5
54021;PMS7003;39936;51.058;17.220;2022-07-06T12:13:45;7;5;4
54021;PMS7003;39936;51.058;17.220;2022-07-06T12:20:54;5;5;4
54021;PMS7003;39936;51.058;17.220;2022-07-06T12:24:05;6;6;5
54021;PMS7003;39936;51.058;17.220;2022-07-06T12:27:20;7;7;5
54021;PMS7003;39936;51.058;17.220;2022-07-06T12:30:33;5;5;4
54021;PMS7003;39936;51.058;17.220;2022-07-06T12:37:06;5;5;4
54021;PMS7003;39936;51.058;17.220;2022-07-06T12:40:50;7;7;5
54021;PMS7003;39936;51.058;17.220;2022-07-06T12:44:20;5;4;4
54021;PMS7003;39936;51.058;17.220;2022-07-06T12:47:29;4;4;3
54021;PMS7003;39936;51.058;17.220;2022-07-06T12:51:10;7;5;3
54021;PMS7003;39936;51.058;17.220;2022-07-06T12:54:20;4;4;4
54021;PMS7003;39936;51.058;17.220;2022-07-06T12:57:41;5;4;4
54021;PMS7003;39936;51.058;17.220;2022-07-06T13:00:50;5;5;5
54021;PMS7003;39936;51.058;17.220;2022-07-06T13:04:15;4;4;3
54021;PMS7003;39936;51.058;17.220;2022-07-06T13:07:23;9;9;8
54021;PMS7003;39936;51.058;17.220;2022-07-06T13:10:33;11;10;7
54021;PMS7003;39936;51.058;17.220;2022-07-06T13:14:00;10;10;8
54021;PMS7003;39936;51.058;17.220;2022-07-06T13:43:04;10;10;7
54021;PMS7003;39936;51.058;17.220;2022-07-06T13:50:41;8;8;7
54021;PMS7003;39936;51.058;17.220;2022-07-06T13:54:15;9;8;7
54021;PMS7003;39936;51.058;17.220;2022-07-06T13:58:11;9;9;7
54021;PMS7003;39936;51.058;17.220;2022-07-06T14:01:28;9;9;7
54021;PMS7003;39936;51.058;17.220;2022-07-06T14:08:26;8;6;6
54021;PMS7003;39936;51.058;17.220;2022-07-06T14:11:38;8;8;6
54021;PMS7003;39936;51.058;17.220;2022-07-06T14:15:40;13;12;8
54021;PMS7003;39936;51.058;17.220;2022-07-06T14:19:19;11;9;8
54021;PMS7003;39936;51.058;17.220;2022-07-06T14:23:51;8;8;7
54021;PMS7003;39936;51.058;17.220;2022-07-06T14:26:57;9;8;7
54021;PMS7003;39936;51.058;17.220;2022-07-06T14:30:20;9;7;6
54021;PMS7003;39936;51.058;17.220;2022-07-06T14:33:33;7;7;6
54021;PMS7003;39936;51.058;17.220;2022-07-06T14:37:05;6;6;5
54021;PMS7003;39936;51.058;17.220;2022-07-06T14:40:34;8;7;5
54021;PMS7003;39936;51.058;17.220;2022-07-06T14:44:07;5;5;4
54021;PMS7003;39936;51.058;17.220;2022-07-06T14:48:19;8;8;6
54021;PMS7003;39936;51.058;17.220;2022-07-06T14:52:57;9;8;7
54021;PMS7003;39936;51.058;17.220;2022-07-06T14:56:41;7;7;5
54021;PMS7003;39936;51.058;17.220;2022-07-06T15:01:17;8;8;6
54021;PMS7003;39936;51.058;17.220;2022-07-06T15:04:48;7;7;6
54021;PMS7003;39936;51.058;17.220;2022-07-06T15:09:39;6;6;4
54021;PMS7003;39936;51.058;17.220;2022-07-06T15:16:28;6;6;5
54021;PMS7003;39936;51.058;17.220;2022-07-06T15:28:29;5;5;4
54021;PMS7003;39936;51.058;17.220;2022-07-06T15:32:41;3;3;2
54021;PMS7003;39936;51.058;17.220;2022-07-06T15:37:10;6;6;4
54021;PMS7003;39936;51.058;17.220;2022-07-06T15:40:55;6;6;5
54021;PMS7003;39936;51.058;17.220;2022-07-06T15:46:23;5;5;4
54021;PMS7003;39936;51.058;17.220;2022-07-06T15:49:34;4;4;3
54021;PMS7003;39936;51.058;17.220;2022-07-06T15:53:37;4;4;3
54021;PMS7003;39936;51.058;17.220;2022-07-06T15:58:00;4;3;2
54021;PMS7003;39936;51.058;17.220;2022-07-06T16:01:43;4;4;3
54021;PMS7003;39936;51.058;17.220;2022-07-06T16:05:14;4;4;3
54021;PMS7003;39936;51.058;17.220;2022-07-06T16:08:54;5;5;3
54021;PMS7003;39936;51.058;17.220;2022-07-06T16:14:07;4;3;3
54021;PMS7003;39936;51.058;17.220;2022-07-06T16:18:34;3;2;2
54021;PMS7003;39936;51.058;17.220;2022-07-06T16:22:19;1;1;1
54021;PMS7003;39936;51.058;17.220;2022-07-06T16:26:07;4;3;2
54021;PMS7003;39936;51.058;17.220;2022-07-06T16:29:23;4;4;3
54021;PMS7003;39936;51.058;17.220;2022-07-06T16:37:29;4;4;2
54021;PMS7003;39936;51.058;17.220;2022-07-06T16:40:53;3;3;2
54021;PMS7003;39936;51.058;17.220;2022-07-06T16:44:38;3;3;2
54021;PMS7003;39936;51.058;17.220;2022-07-06T16:50:16;2;2;1
54021;PMS7003;39936;51.058;17.220;2022-07-06T16:55:08;3;3;2
54021;PMS7003;39936;51.058;17.220;2022-07-06T16:59:05;4;3;2
54021;PMS7003;39936;51.058;17.220;2022-07-06T17:02:35;4;4;2
54021;PMS7003;39936;51.058;17.220;2022-07-06T17:06:12;3;2;2
54021;PMS7003;39936;51.058;17.220;2022-07-06T17:09:54;2;2;2
54021;PMS7003;39936;51.058;17.220;2022-07-06T17:13:21;5;4;3
54021;PMS7003;39936;51.058;17.220;2022-07-06T17:18:15;3;2;2
54021;PMS7003;39936;51.058;17.220;2022-07-06T17:22:15;4;3;2
54021;PMS7003;39936;51.058;17.220;2022-07-06T17:26:27;2;2;2
54021;PMS7003;39936;51.058;17.220;2022-07-06T17:30:01;2;2;1
54021;PMS7003;39936;51.058;17.220;2022-07-06T17:33:47;4;3;1
54021;PMS7003;39936;51.058;17.220;2022-07-06T17:37:20;2;2;2
54021;PMS7003;39936;51.058;17.220;2022-07-06T17:45:08;2;2;2
54021;PMS7003;39936;51.058;17.220;2022-07-06T17:48:37;3;3;2
54021;PMS7003;39936;51.058;17.220;2022-07-06T17:51:51;3;3;2
54021;PMS7003;39936;51.058;17.220;2022-07-06T17:55:19;1;1;0
54021;PMS7003;39936;51.058;17.220;2022-07-06T17:58:30;3;3;2
54021;PMS7003;39936;51.058;17.220;2022-07-06T18:01:42;2;2;1
54021;PMS7003;39936;51.058;17.220;2022-07-06T18:05:39;3;3;2
54021;PMS7003;39936;51.058;17.220;2022-07-06T18:09:05;4;4;2
54021;PMS7003;39936;51.058;17.220;2022-07-06T18:13:01;3;2;2
54021;PMS7003;39936;51.058;17.220;2022-07-06T18:16:31;2;2;2
54021;PMS7003;39936;51.058;17.220;2022-07-06T18:19:57;3;3;2
54021;PMS7003;39936;51.058;17.220;2022-07-06T18:23:05;12;10;6
54021;PMS7003;39936;51.058;17.220;2022-07-06T18:26:18;12;10;7
54021;PMS7003;39936;51.058;17.220;2022-07-06T18:30:04;3;2;1
54021;PMS7003;39936;51.058;17.220;2022-07-06T18:33:50;3;2;2
54021;PMS7003;39936;51.058;17.220;2022-07-06T18:37:22;1;1;1
54021;PMS7003;39936;51.058;17.220;2022-07-06T18:40:35;2;2;1
54021;PMS7003;39936;51.058;17.220;2022-07-06T18:44:03;4;2;2
54021;PMS7003;39936;51.058;17.220;2022-07-06T18:47:49;2;2;2
54021;PMS7003;39936;51.058;17.220;2022-07-06T18:51:20;5;4;2
54021;PMS7003;39936;51.058;17.220;2022-07-06T18:56:09;4;2;2
54021;PMS7003;39936;51.058;17.220;2022-07-06T19:00:10;4;4;2
54021;PMS7003;39936;51.058;17.220;2022-07-06T19:03:21;4;3;2
54021;PMS7003;39936;51.058;17.220;2022-07-06T19:07:25;4;4;4
54021;PMS7003;39936;51.058;17.220;2022-07-06T19:11:18;4;3;2
54021;PMS7003;39936;51.058;17.220;2022-07-06T19:14:50;5;3;2
54021;PMS7003;39936;51.058;17.220;2022-07-06T19:19:04;5;4;3
54021;PMS7003;39936;51.058;17.220;2022-07-06T19:22:11;3;3;2
54021;PMS7003;39936;51.058;17.220;2022-07-06T19:25:21;5;4;3
54021;PMS7003;39936;51.058;17.220;2022-07-06T19:29:36;5;3;3
54021;PMS7003;39936;51.058;17.220;2022-07-06T19:33:28;4;4;2
54021;PMS7003;39936;51.058;17.220;2022-07-06T19:36:37;4;3;2
54021;PMS7003;39936;51.058;17.220;2022-07-06T19:40:07;4;3;3
54021;PMS7003;39936;51.058;17.220;2022-07-06T19:43:47;4;3;2
54021;PMS7003;39936;51.058;17.220;2022-07-06T19:47:17;4;3;3
54021;PMS7003;39936;51.058;17.220;2022-07-06T19:50:50;4;3;1
54021;PMS7003;39936;51.058;17.220;2022-07-06T19:54:42;4;4;3
54021;PMS7003;39936;51.058;17.220;2022-07-06T19:57:54;4;3;3
54021;PMS7003;39936;51.058;17.220;2022-07-06T20:01:43;2;2;1
54021;PMS7003;39936;51.058;17.220;2022-07-06T20:05:25;6;5;3
54021;PMS7003;39936;51.058;17.220;2022-07-06T20:08:55;3;2;2
54021;PMS7003;39936;51.058;17.220;2022-07-06T20:12:35;3;3;2
54021;PMS7003;39936;51.058;17.220;2022-07-06T20:16:04;4;3;2
54021;PMS7003;39936;51.058;17.220;2022-07-06T20:19:33;3;3;2
54021;PMS7003;39936;51.058;17.220;2022-07-06T20:22:56;3;3;2
54021;PMS7003;39936;51.058;17.220;2022-07-06T20:26:38;4;2;1
54021;PMS7003;39936;51.058;17.220;2022-07-06T20:30:20;2;2;1
54021;PMS7003;39936;51.058;17.220;2022-07-06T20:33:51;8;7;4
54021;PMS7003;39936;51.058;17.220;2022-07-06T20:49:43;5;4;3
54021;PMS7003;39936;51.058;17.220;2022-07-06T20:54:05;3;3;3
54021;PMS7003;39936;51.058;17.220;2022-07-06T20:58:00;11;8;6
54021;PMS7003;39936;51.058;17.220;2022-07-06T21:01:38;10;9;7
54021;PMS7003;39936;51.058;17.220;2022-07-06T21:05:33;10;10;8
54021;PMS7003;39936;51.058;17.220;2022-07-06T21:08:43;7;6;4
54021;PMS7003;39936;51.058;17.220;2022-07-06T21:11:53;11;10;7
54021;PMS7003;39936;51.058;17.220;2022-07-06T21:15:54;9;8;6
54021;PMS7003;39936;51.058;17.220;2022-07-06T21:19:04;6;6;3
54021;PMS7003;39936;51.058;17.220;2022-07-06T21:22:16;10;6;4
54021;PMS7003;39936;51.058;17.220;2022-07-06T21:25:47;8;7;5
54021;PMS7003;39936;51.058;17.220;2022-07-06T21:29:09;8;5;5
54021;PMS7003;39936;51.058;17.220;2022-07-06T21:33:18;7;6;4
54021;PMS7003;39936;51.058;17.220;2022-07-06T21:36:49;8;6;5
54021;PMS7003;39936;51.058;17.220;2022-07-06T21:40:21;6;5;4
54021;PMS7003;39936;51.058;17.220;2022-07-06T21:44:05;7;6;4
54021;PMS7003;39936;51.058;17.220;2022-07-06T21:47:29;9;7;6
54021;PMS7003;39936;51.058;17.220;2022-07-06T21:51:06;9;8;5
54021;PMS7003;39936;51.058;17.220;2022-07-06T21:54:15;11;10;7
54021;PMS7003;39936;51.058;17.220;2022-07-06T21:57:57;7;7;6
54021;PMS7003;39936;51.058;17.220;2022-07-06T22:01:28;6;5;4
54021;PMS7003;39936;51.058;17.220;2022-07-06T22:05:11;8;7;5
54021;PMS7003;39936;51.058;17.220;2022-07-06T22:08:52;7;7;5
54021;PMS7003;39936;51.058;17.220;2022-07-06T22:12:20;8;7;6
54021;PMS7003;39936;51.058;17.220;2022-07-06T22:15:30;8;7;4
54021;PMS7003;39936;51.058;17.220;2022-07-06T22:19:16;10;6;5
54021;PMS7003;39936;51.058;17.220;2022-07-06T22:23:32;11;9;6
54021;PMS7003;39936;51.058;17.220;2022-07-06T22:26:54;6;5;4
54021;PMS7003;39936;51.058;17.220;2022-07-06T22:30:20;9;7;5
54021;PMS7003;39936;51.058;17.220;2022-07-06T22:33:48;7;6;5
54021;PMS7003;39936;51.058;17.220;2022-07-06T22:37:19;8;6;5
54021;PMS7003;39936;51.058;17.220;2022-07-06T22:40:54;8;6;4
54021;PMS7003;39936;51.058;17.220;2022-07-06T22:44:35;8;6;4
54021;PMS7003;39936;51.058;17.220;2022-07-06T22:48:04;9;7;5
54021;PMS7003;39936;51.058;17.220;2022-07-06T22:52:09;6;5;4
54021;PMS7003;39936;51.058;17.220;2022-07-06T22:55:31;7;6;3
54021;PMS7003;39936;51.058;17.220;2022-07-06T22:58:48;5;5;4
54021;PMS7003;39936;51.058;17.220;2022-07-06T23:02:39;6;5;4
54021;PMS7003;39936;51.058;17.220;2022-07-06T23:06:22;7;7;5
54021;PMS7003;39936;51.058;17.220;2022-07-06T23:09:37;5;5;3
54021;PMS7003;39936;51.058;17.220;2022-07-06T23:13:39;5;5;4
54021;PMS7003;39936;51.058;17.220;2022-07-06T23:17:21;8;7;5
54021;PMS7003;39936;51.058;17.220;2022-07-06T23:21:22;8;6;5
54021;PMS7003;39936;51.058;17.220;2022-07-06T23:24:49;8;7;5
54021;PMS7003;39936;51.058;17.220;2022-07-06T23:28:09;7;7;5
54021;PMS7003;39936;51.058;17.220;2022-07-06T23:31:22;10;7;5
54021;PMS7003;39936;51.058;17.220;2022-07-06T23:35:34;7;7;6
54021;PMS7003;39936;51.058;17.220;2022-07-06T23:39:07;7;6;4
54021;PMS7003;39936;51.058;17.220;2022-07-06T23:43:01;7;7;5
54021;PMS7003;39936;51.058;17.220;2022-07-06T23:46:29;10;8;6
54021;PMS7003;39936;51.058;17.220;2022-07-06T23:49:59;6;6;5
54021;PMS7003;39936;51.058;17.220;2022-07-06T23:53:59;7;6;4
54021;PMS7003;39936;51.058;17.220;2022-07-06T23:57:25;10;7;5
